Terminal Aerodrome Forecast
Issued by NWS Charleston, WV

Current Version | Previous Version | Text Only | Print | Product List | Glossary Off
Versions: 1 2 3 4 5 6 7 8 9 10 11 12 13 14 15 16 17 18 19 20 21 22 23 24 25

000
FTUS41 KRLX 150200 AAA
TAFEKN
TAF AMD
KEKN 150259Z 1503/1524 VRB04KT 5SM BR OVC010
     FM150900 00000KT 2SM BR OVC008
     FM151300 00000KT 3SM BR OVC010
     FM151400 00000KT 6SM BR BKN015
     FM151500 00000KT P6SM SCT020=

USA.gov is the U.S. government's official web portal to all federal, state and local government web resources and services.